sensor_id;sensor_type;location;lat;lon;timestamp;temperature;humidity
34927;DHT22;21132;48.308;14.274;2023-04-26T00:02:18;11.20;81.90
34927;DHT22;21132;48.308;14.274;2023-04-26T00:04:44;11.20;81.70
34927;DHT22;21132;48.308;14.274;2023-04-26T00:07:11;11.20;81.70
34927;DHT22;21132;48.308;14.274;2023-04-26T00:09:38;11.20;81.60
34927;DHT22;21132;48.308;14.274;2023-04-26T00:12:06;11.20;81.60
34927;DHT22;21132;48.308;14.274;2023-04-26T00:14:33;11.10;81.40
34927;DHT22;21132;48.308;14.274;2023-04-26T00:16:59;11.10;81.40
34927;DHT22;21132;48.308;14.274;2023-04-26T00:19:24;11.20;81.30
34927;DHT22;21132;48.308;14.274;2023-04-26T00:21:50;11.10;81.20
34927;DHT22;21132;48.308;14.274;2023-04-26T00:24:16;11.20;81.30
34927;DHT22;21132;48.308;14.274;2023-04-26T00:26:42;11.20;81.50
34927;DHT22;21132;48.308;14.274;2023-04-26T00:29:08;11.10;81.60
34927;DHT22;21132;48.308;14.274;2023-04-26T00:31:34;11.20;81.70
34927;DHT22;21132;48.308;14.274;2023-04-26T00:34:00;11.20;81.40
34927;DHT22;21132;48.308;14.274;2023-04-26T00:36:26;11.10;80.90
34927;DHT22;21132;48.308;14.274;2023-04-26T00:38:52;11.20;80.70
34927;DHT22;21132;48.308;14.274;2023-04-26T00:41:18;11.20;80.70
34927;DHT22;21132;48.308;14.274;2023-04-26T00:43:44;11.20;80.70
34927;DHT22;21132;48.308;14.274;2023-04-26T00:46:10;11.20;80.70
34927;DHT22;21132;48.308;14.274;2023-04-26T00:48:37;11.20;80.80
34927;DHT22;21132;48.308;14.274;2023-04-26T00:51:03;11.30;81.00
34927;DHT22;21132;48.308;14.274;2023-04-26T00:53:31;11.30;81.00
34927;DHT22;21132;48.308;14.274;2023-04-26T00:55:59;11.30;81.00
34927;DHT22;21132;48.308;14.274;2023-04-26T00:58:25;11.40;81.00
34927;DHT22;21132;48.308;14.274;2023-04-26T01:00:51;11.40;81.10
34927;DHT22;21132;48.308;14.274;2023-04-26T01:03:17;11.40;81.20
34927;DHT22;21132;48.308;14.274;2023-04-26T01:05:43;11.50;81.10
34927;DHT22;21132;48.308;14.274;2023-04-26T01:08:10;11.50;81.00
34927;DHT22;21132;48.308;14.274;2023-04-26T01:10:36;11.50;80.70
34927;DHT22;21132;48.308;14.274;2023-04-26T01:13:02;11.50;80.40
34927;DHT22;21132;48.308;14.274;2023-04-26T01:15:28;11.50;80.20
34927;DHT22;21132;48.308;14.274;2023-04-26T01:17:55;11.50;80.20
34927;DHT22;21132;48.308;14.274;2023-04-26T01:20:22;11.50;80.10
34927;DHT22;21132;48.308;14.274;2023-04-26T01:22:48;11.50;80.00
34927;DHT22;21132;48.308;14.274;2023-04-26T01:25:15;11.60;80.00
34927;DHT22;21132;48.308;14.274;2023-04-26T01:27:41;11.60;80.10
34927;DHT22;21132;48.308;14.274;2023-04-26T01:30:09;11.60;80.20
34927;DHT22;21132;48.308;14.274;2023-04-26T01:32:35;11.60;80.00
34927;DHT22;21132;48.308;14.274;2023-04-26T01:35:02;11.60;80.00
34927;DHT22;21132;48.308;14.274;2023-04-26T01:37:28;11.60;79.80
34927;DHT22;21132;48.308;14.274;2023-04-26T01:39:54;11.60;79.70
34927;DHT22;21132;48.308;14.274;2023-04-26T01:42:20;11.70;79.60
34927;DHT22;21132;48.308;14.274;2023-04-26T01:44:47;11.70;79.30
34927;DHT22;21132;48.308;14.274;2023-04-26T01:47:13;11.70;79.10
34927;DHT22;21132;48.308;14.274;2023-04-26T01:49:38;11.70;79.10
34927;DHT22;21132;48.308;14.274;2023-04-26T01:52:04;11.70;79.00
34927;DHT22;21132;48.308;14.274;2023-04-26T01:54:30;11.70;78.90
34927;DHT22;21132;48.308;14.274;2023-04-26T01:56:55;11.80;78.90
34927;DHT22;21132;48.308;14.274;2023-04-26T01:59:21;11.70;78.60
34927;DHT22;21132;48.308;14.274;2023-04-26T02:01:47;11.70;78.50
34927;DHT22;21132;48.308;14.274;2023-04-26T02:04:13;11.70;78.20
34927;DHT22;21132;48.308;14.274;2023-04-26T02:06:38;11.70;77.80
34927;DHT22;21132;48.308;14.274;2023-04-26T02:09:06;11.80;77.60
34927;DHT22;21132;48.308;14.274;2023-04-26T02:11:34;11.80;77.70
34927;DHT22;21132;48.308;14.274;2023-04-26T02:14:00;11.80;77.60
34927;DHT22;21132;48.308;14.274;2023-04-26T02:16:26;11.80;77.50
34927;DHT22;21132;48.308;14.274;2023-04-26T02:18:53;11.80;77.20
34927;DHT22;21132;48.308;14.274;2023-04-26T02:21:19;11.80;77.20
34927;DHT22;21132;48.308;14.274;2023-04-26T02:23:46;11.80;77.20
34927;DHT22;21132;48.308;14.274;2023-04-26T02:26:12;11.80;77.30
34927;DHT22;21132;48.308;14.274;2023-04-26T02:28:38;11.80;77.20
34927;DHT22;21132;48.308;14.274;2023-04-26T02:31:04;11.80;77.00
34927;DHT22;21132;48.308;14.274;2023-04-26T02:33:30;11.70;76.60
34927;DHT22;21132;48.308;14.274;2023-04-26T02:35:56;11.70;76.60
34927;DHT22;21132;48.308;14.274;2023-04-26T02:38:22;11.80;76.80
34927;DHT22;21132;48.308;14.274;2023-04-26T02:40:48;11.80;76.80
34927;DHT22;21132;48.308;14.274;2023-04-26T02:43:13;11.80;76.70
34927;DHT22;21132;48.308;14.274;2023-04-26T02:45:42;11.80;76.80
34927;DHT22;21132;48.308;14.274;2023-04-26T02:48:08;11.80;76.60
34927;DHT22;21132;48.308;14.274;2023-04-26T02:50:34;11.80;76.40
34927;DHT22;21132;48.308;14.274;2023-04-26T02:53:00;11.80;76.30
34927;DHT22;21132;48.308;14.274;2023-04-26T02:55:28;11.80;76.00
34927;DHT22;21132;48.308;14.274;2023-04-26T02:57:53;11.80;75.70
34927;DHT22;21132;48.308;14.274;2023-04-26T03:00:19;11.70;75.30
34927;DHT22;21132;48.308;14.274;2023-04-26T03:02:46;11.70;75.10
34927;DHT22;21132;48.308;14.274;2023-04-26T03:05:12;11.60;74.80
34927;DHT22;21132;48.308;14.274;2023-04-26T03:07:38;11.50;74.70
34927;DHT22;21132;48.308;14.274;2023-04-26T03:10:04;11.50;74.70
34927;DHT22;21132;48.308;14.274;2023-04-26T03:12:30;11.40;74.60
34927;DHT22;21132;48.308;14.274;2023-04-26T03:14:56;11.30;74.50
34927;DHT22;21132;48.308;14.274;2023-04-26T03:17:22;11.30;74.60
34927;DHT22;21132;48.308;14.274;2023-04-26T03:19:47;11.20;74.50
34927;DHT22;21132;48.308;14.274;2023-04-26T03:22:13;11.20;74.70
34927;DHT22;21132;48.308;14.274;2023-04-26T03:24:43;11.20;74.70
34927;DHT22;21132;48.308;14.274;2023-04-26T03:27:10;11.10;74.50
34927;DHT22;21132;48.308;14.274;2023-04-26T03:29:36;11.10;74.60
34927;DHT22;21132;48.308;14.274;2023-04-26T03:32:02;11.00;74.50
34927;DHT22;21132;48.308;14.274;2023-04-26T03:34:27;11.00;74.60
34927;DHT22;21132;48.308;14.274;2023-04-26T03:36:53;11.00;74.80
34927;DHT22;21132;48.308;14.274;2023-04-26T03:39:19;10.90;75.00
34927;DHT22;21132;48.308;14.274;2023-04-26T03:41:45;10.90;75.10
34927;DHT22;21132;48.308;14.274;2023-04-26T03:44:11;10.90;75.40
34927;DHT22;21132;48.308;14.274;2023-04-26T03:46:37;10.90;75.50
34927;DHT22;21132;48.308;14.274;2023-04-26T03:49:03;10.90;75.60
34927;DHT22;21132;48.308;14.274;2023-04-26T03:51:29;10.90;75.70
34927;DHT22;21132;48.308;14.274;2023-04-26T03:53:57;10.90;75.70
34927;DHT22;21132;48.308;14.274;2023-04-26T03:56:22;10.90;75.80
34927;DHT22;21132;48.308;14.274;2023-04-26T03:58:48;11.00;75.90
34927;DHT22;21132;48.308;14.274;2023-04-26T04:01:14;11.00;76.10
34927;DHT22;21132;48.308;14.274;2023-04-26T04:03:40;11.00;76.20
34927;DHT22;21132;48.308;14.274;2023-04-26T04:06:06;11.10;76.30
34927;DHT22;21132;48.308;14.274;2023-04-26T04:08:32;11.10;76.30
34927;DHT22;21132;48.308;14.274;2023-04-26T04:10:59;11.10;76.40
34927;DHT22;21132;48.308;14.274;2023-04-26T04:13:26;11.20;76.50
34927;DHT22;21132;48.308;14.274;2023-04-26T04:15:52;11.20;76.40
34927;DHT22;21132;48.308;14.274;2023-04-26T04:18:17;11.30;76.50
34927;DHT22;21132;48.308;14.274;2023-04-26T04:20:43;11.30;76.40
34927;DHT22;21132;48.308;14.274;2023-04-26T04:23:10;11.40;76.30
34927;DHT22;21132;48.308;14.274;2023-04-26T04:25:36;11.40;76.00
34927;DHT22;21132;48.308;14.274;2023-04-26T04:28:02;11.40;75.70
34927;DHT22;21132;48.308;14.274;2023-04-26T04:30:28;11.40;75.40
34927;DHT22;21132;48.308;14.274;2023-04-26T04:32:55;11.40;75.20
34927;DHT22;21132;48.308;14.274;2023-04-26T04:35:24;11.30;75.10
34927;DHT22;21132;48.308;14.274;2023-04-26T04:37:54;11.30;75.10
34927;DHT22;21132;48.308;14.274;2023-04-26T04:40:23;11.30;75.10
34927;DHT22;21132;48.308;14.274;2023-04-26T04:42:49;11.30;75.10
34927;DHT22;21132;48.308;14.274;2023-04-26T04:45:16;11.30;75.20
34927;DHT22;21132;48.308;14.274;2023-04-26T04:47:42;11.30;75.40
34927;DHT22;21132;48.308;14.274;2023-04-26T04:50:09;11.40;75.50
34927;DHT22;21132;48.308;14.274;2023-04-26T04:52:36;11.40;76.30
34927;DHT22;21132;48.308;14.274;2023-04-26T04:55:02;11.40;75.70
34927;DHT22;21132;48.308;14.274;2023-04-26T04:57:29;11.40;75.30
34927;DHT22;21132;48.308;14.274;2023-04-26T04:59:57;11.50;75.50
34927;DHT22;21132;48.308;14.274;2023-04-26T05:02:22;11.50;75.30
34927;DHT22;21132;48.308;14.274;2023-04-26T05:04:49;11.50;75.10
34927;DHT22;21132;48.308;14.274;2023-04-26T05:07:15;11.60;74.90
34927;DHT22;21132;48.308;14.274;2023-04-26T05:09:42;11.60;75.10
34927;DHT22;21132;48.308;14.274;2023-04-26T05:12:11;11.70;75.50
34927;DHT22;21132;48.308;14.274;2023-04-26T05:14:37;11.70;75.40
34927;DHT22;21132;48.308;14.274;2023-04-26T05:17:03;11.80;75.50
34927;DHT22;21132;48.308;14.274;2023-04-26T05:19:28;11.90;75.60
34927;DHT22;21132;48.308;14.274;2023-04-26T05:21:55;12.00;75.20
34927;DHT22;21132;48.308;14.274;2023-04-26T05:24:21;12.00;74.30
34927;DHT22;21132;48.308;14.274;2023-04-26T05:26:47;12.00;73.60
34927;DHT22;21132;48.308;14.274;2023-04-26T05:29:13;12.10;73.90
34927;DHT22;21132;48.308;14.274;2023-04-26T05:31:39;12.10;73.30
34927;DHT22;21132;48.308;14.274;2023-04-26T05:34:14;12.10;72.70
34927;DHT22;21132;48.308;14.274;2023-04-26T05:36:40;12.10;73.10
34927;DHT22;21132;48.308;14.274;2023-04-26T05:39:06;12.20;73.50
34927;DHT22;21132;48.308;14.274;2023-04-26T05:41:32;12.30;73.40
34927;DHT22;21132;48.308;14.274;2023-04-26T05:43:58;12.40;73.50
34927;DHT22;21132;48.308;14.274;2023-04-26T05:46:24;12.40;72.80
34927;DHT22;21132;48.308;14.274;2023-04-26T05:48:50;12.40;72.00
34927;DHT22;21132;48.308;14.274;2023-04-26T05:51:16;12.50;72.30
34927;DHT22;21132;48.308;14.274;2023-04-26T05:53:42;12.60;72.90
34927;DHT22;21132;48.308;14.274;2023-04-26T05:56:07;12.60;72.70
34927;DHT22;21132;48.308;14.274;2023-04-26T05:58:33;12.70;72.40
34927;DHT22;21132;48.308;14.274;2023-04-26T06:00:59;12.70;71.70
34927;DHT22;21132;48.308;14.274;2023-04-26T06:03:25;12.80;71.90
34927;DHT22;21132;48.308;14.274;2023-04-26T06:05:51;12.80;70.20
34927;DHT22;21132;48.308;14.274;2023-04-26T06:08:17;12.80;70.20
34927;DHT22;21132;48.308;14.274;2023-04-26T06:10:42;12.90;70.30
34927;DHT22;21132;48.308;14.274;2023-04-26T06:13:08;12.90;70.40
34927;DHT22;21132;48.308;14.274;2023-04-26T06:15:34;13.00;70.90
34927;DHT22;21132;48.308;14.274;2023-04-26T06:18:00;13.00;69.90
34927;DHT22;21132;48.308;14.274;2023-04-26T06:20:26;13.10;69.90
34927;DHT22;21132;48.308;14.274;2023-04-26T06:22:52;13.10;69.80
34927;DHT22;21132;48.308;14.274;2023-04-26T06:25:18;13.20;70.00
34927;DHT22;21132;48.308;14.274;2023-04-26T06:27:44;13.20;69.70
34927;DHT22;21132;48.308;14.274;2023-04-26T06:30:10;13.30;69.30
34927;DHT22;21132;48.308;14.274;2023-04-26T06:32:37;13.30;69.20
34927;DHT22;21132;48.308;14.274;2023-04-26T06:35:03;13.40;68.90
34927;DHT22;21132;48.308;14.274;2023-04-26T06:37:29;13.40;68.30
34927;DHT22;21132;48.308;14.274;2023-04-26T06:39:55;13.50;68.50
34927;DHT22;21132;48.308;14.274;2023-04-26T06:42:21;13.60;68.60
34927;DHT22;21132;48.308;14.274;2023-04-26T06:44:46;13.70;68.00
34927;DHT22;21132;48.308;14.274;2023-04-26T06:47:12;13.70;67.80
34927;DHT22;21132;48.308;14.274;2023-04-26T06:49:38;13.80;67.20
34927;DHT22;21132;48.308;14.274;2023-04-26T06:52:05;13.80;67.20
34927;DHT22;21132;48.308;14.274;2023-04-26T06:54:33;13.90;66.90
34927;DHT22;21132;48.308;14.274;2023-04-26T06:57:00;13.90;66.30
34927;DHT22;21132;48.308;14.274;2023-04-26T06:59:26;14.00;66.90
34927;DHT22;21132;48.308;14.274;2023-04-26T07:01:52;14.10;67.20
34927;DHT22;21132;48.308;14.274;2023-04-26T07:04:18;14.20;67.30
34927;DHT22;21132;48.308;14.274;2023-04-26T07:06:45;14.20;66.40
34927;DHT22;21132;48.308;14.274;2023-04-26T07:09:11;14.30;66.10
34927;DHT22;21132;48.308;14.274;2023-04-26T07:11:37;14.40;65.90
34927;DHT22;21132;48.308;14.274;2023-04-26T07:14:04;14.50;66.20
34927;DHT22;21132;48.308;14.274;2023-04-26T07:16:29;14.50;65.90
34927;DHT22;21132;48.308;14.274;2023-04-26T07:18:56;14.60;64.50
34927;DHT22;21132;48.308;14.274;2023-04-26T07:21:25;14.60;64.00
34927;DHT22;21132;48.308;14.274;2023-04-26T07:23:55;14.60;63.70
34927;DHT22;21132;48.308;14.274;2023-04-26T07:26:25;14.60;61.70
34927;DHT22;21132;48.308;14.274;2023-04-26T07:28:51;14.60;61.30
34927;DHT22;21132;48.308;14.274;2023-04-26T07:31:18;14.60;62.00
34927;DHT22;21132;48.308;14.274;2023-04-26T07:33:44;14.50;60.90
34927;DHT22;21132;48.308;14.274;2023-04-26T07:36:10;14.60;61.50
34927;DHT22;21132;48.308;14.274;2023-04-26T07:38:36;14.60;60.90
34927;DHT22;21132;48.308;14.274;2023-04-26T07:41:02;14.60;60.70
34927;DHT22;21132;48.308;14.274;2023-04-26T07:46:45;14.80;60.60
34927;DHT22;21132;48.308;14.274;2023-04-26T07:49:11;14.90;60.50
34927;DHT22;21132;48.308;14.274;2023-04-26T07:51:37;15.00;61.40
34927;DHT22;21132;48.308;14.274;2023-04-26T07:54:03;15.00;60.00
34927;DHT22;21132;48.308;14.274;2023-04-26T07:56:29;15.10;59.50
34927;DHT22;21132;48.308;14.274;2023-04-26T07:58:55;15.10;58.90
34927;DHT22;21132;48.308;14.274;2023-04-26T08:01:21;15.20;58.80
34927;DHT22;21132;48.308;14.274;2023-04-26T08:03:46;15.20;57.70
34927;DHT22;21132;48.308;14.274;2023-04-26T08:06:13;15.10;57.20
34927;DHT22;21132;48.308;14.274;2023-04-26T08:08:39;15.20;57.20
34927;DHT22;21132;48.308;14.274;2023-04-26T08:11:07;15.20;57.70
34927;DHT22;21132;48.308;14.274;2023-04-26T08:13:34;15.20;56.40
34927;DHT22;21132;48.308;14.274;2023-04-26T08:16:00;15.20;55.30
34927;DHT22;21132;48.308;14.274;2023-04-26T08:18:25;15.30;55.30
34927;DHT22;21132;48.308;14.274;2023-04-26T08:20:53;15.40;55.90
34927;DHT22;21132;48.308;14.274;2023-04-26T08:23:21;15.50;55.50
34927;DHT22;21132;48.308;14.274;2023-04-26T08:25:47;15.50;54.40
34927;DHT22;21132;48.308;14.274;2023-04-26T08:28:14;15.60;52.40
34927;DHT22;21132;48.308;14.274;2023-04-26T08:30:40;15.70;52.90
34927;DHT22;21132;48.308;14.274;2023-04-26T08:33:08;15.80;52.00
34927;DHT22;21132;48.308;14.274;2023-04-26T08:35:34;15.80;53.00
34927;DHT22;21132;48.308;14.274;2023-04-26T08:37:59;15.90;52.10
34927;DHT22;21132;48.308;14.274;2023-04-26T08:40:25;16.00;53.80
34927;DHT22;21132;48.308;14.274;2023-04-26T08:42:52;16.00;52.70
34927;DHT22;21132;48.308;14.274;2023-04-26T08:45:19;16.10;52.90
34927;DHT22;21132;48.308;14.274;2023-04-26T08:47:50;16.00;50.60
34927;DHT22;21132;48.308;14.274;2023-04-26T08:50:21;16.00;50.00
34927;DHT22;21132;48.308;14.274;2023-04-26T08:52:51;15.90;50.10
34927;DHT22;21132;48.308;14.274;2023-04-26T08:55:18;16.00;50.70
34927;DHT22;21132;48.308;14.274;2023-04-26T08:57:49;16.00;51.20
34927;DHT22;21132;48.308;14.274;2023-04-26T09:00:17;16.10;48.80
34927;DHT22;21132;48.308;14.274;2023-04-26T09:02:49;16.20;49.00
34927;DHT22;21132;48.308;14.274;2023-04-26T09:05:16;16.20;48.50
34927;DHT22;21132;48.308;14.274;2023-04-26T09:07:46;16.20;46.90
34927;DHT22;21132;48.308;14.274;2023-04-26T09:10:13;16.10;47.60
34927;DHT22;21132;48.308;14.274;2023-04-26T09:12:42;16.10;47.60
34927;DHT22;21132;48.308;14.274;2023-04-26T09:15:08;16.10;47.90
34927;DHT22;21132;48.308;14.274;2023-04-26T09:17:38;16.00;46.00
34927;DHT22;21132;48.308;14.274;2023-04-26T09:20:18;15.90;46.50
34927;DHT22;21132;48.308;14.274;2023-04-26T09:22:45;15.90;47.60
34927;DHT22;21132;48.308;14.274;2023-04-26T09:25:12;15.90;47.50
34927;DHT22;21132;48.308;14.274;2023-04-26T09:27:40;15.90;47.30
34927;DHT22;21132;48.308;14.274;2023-04-26T09:30:16;15.90;45.00
34927;DHT22;21132;48.308;14.274;2023-04-26T09:37:55;16.10;43.60
34927;DHT22;21132;48.308;14.274;2023-04-26T09:40:22;16.10;44.10
34927;DHT22;21132;48.308;14.274;2023-04-26T09:43:20;16.10;44.00
34927;DHT22;21132;48.308;14.274;2023-04-26T09:45:54;16.10;44.10
34927;DHT22;21132;48.308;14.274;2023-04-26T09:48:25;16.20;46.00
34927;DHT22;21132;48.308;14.274;2023-04-26T09:50:55;16.30;45.30
34927;DHT22;21132;48.308;14.274;2023-04-26T09:53:45;16.40;46.30
34927;DHT22;21132;48.308;14.274;2023-04-26T09:56:16;16.60;46.30
34927;DHT22;21132;48.308;14.274;2023-04-26T10:01:15;17.00;46.60
34927;DHT22;21132;48.308;14.274;2023-04-26T10:03:42;17.10;45.60
34927;DHT22;21132;48.308;14.274;2023-04-26T10:06:09;17.30;42.60
34927;DHT22;21132;48.308;14.274;2023-04-26T10:08:35;17.30;43.40
34927;DHT22;21132;48.308;14.274;2023-04-26T10:11:03;17.40;43.10
34927;DHT22;21132;48.308;14.274;2023-04-26T10:13:33;17.40;43.50
34927;DHT22;21132;48.308;14.274;2023-04-26T10:15:59;17.50;41.20
34927;DHT22;21132;48.308;14.274;2023-04-26T10:18:29;17.50;43.30
34927;DHT22;21132;48.308;14.274;2023-04-26T10:21:03;17.60;43.70
34927;DHT22;21132;48.308;14.274;2023-04-26T10:23:31;17.70;42.80
34927;DHT22;21132;48.308;14.274;2023-04-26T10:25:57;17.80;43.50
34927;DHT22;21132;48.308;14.274;2023-04-26T10:28:53;17.80;43.20
34927;DHT22;21132;48.308;14.274;2023-04-26T10:31:19;17.80;43.50
34927;DHT22;21132;48.308;14.274;2023-04-26T10:34:20;17.90;42.30
34927;DHT22;21132;48.308;14.274;2023-04-26T10:37:15;17.90;41.90
34927;DHT22;21132;48.308;14.274;2023-04-26T10:39:43;18.10;42.30
34927;DHT22;21132;48.308;14.274;2023-04-26T10:44:49;18.10;40.60
34927;DHT22;21132;48.308;14.274;2023-04-26T10:47:34;18.10;39.50
34927;DHT22;21132;48.308;14.274;2023-04-26T10:50:06;18.00;40.50
34927;DHT22;21132;48.308;14.274;2023-04-26T10:53:04;18.00;41.00
34927;DHT22;21132;48.308;14.274;2023-04-26T10:55:40;18.00;40.70
34927;DHT22;21132;48.308;14.274;2023-04-26T10:58:33;17.90;39.40
34927;DHT22;21132;48.308;14.274;2023-04-26T11:01:16;17.90;41.50
34927;DHT22;21132;48.308;14.274;2023-04-26T11:04:05;18.00;41.40
34927;DHT22;21132;48.308;14.274;2023-04-26T11:06:51;18.10;41.70
34927;DHT22;21132;48.308;14.274;2023-04-26T11:11:58;18.10;41.60
34927;DHT22;21132;48.308;14.274;2023-04-26T11:14:24;18.10;42.00
34927;DHT22;21132;48.308;14.274;2023-04-26T11:16:51;18.10;41.20
34927;DHT22;21132;48.308;14.274;2023-04-26T11:19:17;18.10;41.30
34927;DHT22;21132;48.308;14.274;2023-04-26T11:21:42;18.10;39.80
34927;DHT22;21132;48.308;14.274;2023-04-26T11:24:08;18.10;39.60
34927;DHT22;21132;48.308;14.274;2023-04-26T11:26:34;18.20;39.70
34927;DHT22;21132;48.308;14.274;2023-04-26T11:29:01;18.30;39.90
34927;DHT22;21132;48.308;14.274;2023-04-26T11:31:29;18.20;38.20
34927;DHT22;21132;48.308;14.274;2023-04-26T11:34:02;18.20;37.50
34927;DHT22;21132;48.308;14.274;2023-04-26T11:36:28;18.10;38.50
34927;DHT22;21132;48.308;14.274;2023-04-26T11:38:54;18.10;38.80
34927;DHT22;21132;48.308;14.274;2023-04-26T11:41:22;18.10;39.70
34927;DHT22;21132;48.308;14.274;2023-04-26T11:43:48;18.00;38.60
34927;DHT22;21132;48.308;14.274;2023-04-26T11:46:14;18.00;38.20
34927;DHT22;21132;48.308;14.274;2023-04-26T11:48:41;18.00;38.00
34927;DHT22;21132;48.308;14.274;2023-04-26T11:51:07;18.00;37.30
34927;DHT22;21132;48.308;14.274;2023-04-26T11:53:37;17.90;37.70
34927;DHT22;21132;48.308;14.274;2023-04-26T11:58:46;17.90;37.40
34927;DHT22;21132;48.308;14.274;2023-04-26T12:01:22;17.80;38.10
34927;DHT22;21132;48.308;14.274;2023-04-26T12:03:50;17.70;37.90
34927;DHT22;21132;48.308;14.274;2023-04-26T12:06:16;17.70;39.70
34927;DHT22;21132;48.308;14.274;2023-04-26T12:08:51;17.70;40.60
34927;DHT22;21132;48.308;14.274;2023-04-26T12:11:17;17.70;39.10
34927;DHT22;21132;48.308;14.274;2023-04-26T12:13:45;17.60;39.00
34927;DHT22;21132;48.308;14.274;2023-04-26T12:16:12;17.60;39.50
34927;DHT22;21132;48.308;14.274;2023-04-26T12:18:39;17.60;40.10
34927;DHT22;21132;48.308;14.274;2023-04-26T12:21:05;17.50;39.30
34927;DHT22;21132;48.308;14.274;2023-04-26T12:23:38;17.50;40.30
34927;DHT22;21132;48.308;14.274;2023-04-26T12:26:05;17.50;39.00
34927;DHT22;21132;48.308;14.274;2023-04-26T12:28:31;17.50;38.80
34927;DHT22;21132;48.308;14.274;2023-04-26T12:30:56;17.50;39.50
34927;DHT22;21132;48.308;14.274;2023-04-26T12:33:22;17.60;39.30
34927;DHT22;21132;48.308;14.274;2023-04-26T12:35:49;17.70;38.20
34927;DHT22;21132;48.308;14.274;2023-04-26T12:38:16;17.80;38.30
34927;DHT22;21132;48.308;14.274;2023-04-26T12:40:42;18.00;39.50
34927;DHT22;21132;48.308;14.274;2023-04-26T12:43:08;17.90;36.20
34927;DHT22;21132;48.308;14.274;2023-04-26T12:45:34;17.90;36.00
34927;DHT22;21132;48.308;14.274;2023-04-26T12:48:00;17.90;35.00
34927;DHT22;21132;48.308;14.274;2023-04-26T12:50:26;17.90;36.10
34927;DHT22;21132;48.308;14.274;2023-04-26T12:52:52;18.00;36.90
34927;DHT22;21132;48.308;14.274;2023-04-26T12:55:19;18.00;36.50
34927;DHT22;21132;48.308;14.274;2023-04-26T12:57:45;18.10;37.30
34927;DHT22;21132;48.308;14.274;2023-04-26T13:00:14;18.20;36.80
34927;DHT22;21132;48.308;14.274;2023-04-26T13:02:42;18.30;36.80
34927;DHT22;21132;48.308;14.274;2023-04-26T13:05:08;18.40;36.20
34927;DHT22;21132;48.308;14.274;2023-04-26T13:07:36;18.50;36.50
34927;DHT22;21132;48.308;14.274;2023-04-26T13:10:03;18.60;36.90
34927;DHT22;21132;48.308;14.274;2023-04-26T13:12:29;18.70;36.70
34927;DHT22;21132;48.308;14.274;2023-04-26T13:14:55;18.70;36.40
34927;DHT22;21132;48.308;14.274;2023-04-26T13:17:23;18.80;35.40
34927;DHT22;21132;48.308;14.274;2023-04-26T13:19:49;18.80;35.10
34927;DHT22;21132;48.308;14.274;2023-04-26T13:22:15;18.80;35.20
34927;DHT22;21132;48.308;14.274;2023-04-26T13:24:41;18.80;35.20
34927;DHT22;21132;48.308;14.274;2023-04-26T13:27:07;18.90;35.30
34927;DHT22;21132;48.308;14.274;2023-04-26T13:29:33;18.80;34.90
34927;DHT22;21132;48.308;14.274;2023-04-26T13:32:00;18.90;35.00
34927;DHT22;21132;48.308;14.274;2023-04-26T13:34:26;19.00;35.70
34927;DHT22;21132;48.308;14.274;2023-04-26T13:36:53;19.20;36.00
34927;DHT22;21132;48.308;14.274;2023-04-26T13:39:21;19.30;35.60
34927;DHT22;21132;48.308;14.274;2023-04-26T13:41:48;19.60;35.30
34927;DHT22;21132;48.308;14.274;2023-04-26T13:44:14;19.70;35.10
34927;DHT22;21132;48.308;14.274;2023-04-26T13:46:41;19.90;33.90
34927;DHT22;21132;48.308;14.274;2023-04-26T13:49:07;20.00;34.00
34927;DHT22;21132;48.308;14.274;2023-04-26T13:51:35;20.10;34.10
34927;DHT22;21132;48.308;14.274;2023-04-26T13:54:02;20.10;32.40
34927;DHT22;21132;48.308;14.274;2023-04-26T13:56:33;20.10;32.80
34927;DHT22;21132;48.308;14.274;2023-04-26T13:58:59;20.10;31.30
34927;DHT22;21132;48.308;14.274;2023-04-26T14:01:30;20.20;31.80
34927;DHT22;21132;48.308;14.274;2023-04-26T14:03:56;20.30;31.50
34927;DHT22;21132;48.308;14.274;2023-04-26T14:06:21;20.30;30.50
34927;DHT22;21132;48.308;14.274;2023-04-26T14:08:47;20.40;30.40
34927;DHT22;21132;48.308;14.274;2023-04-26T14:11:13;20.40;30.30
34927;DHT22;21132;48.308;14.274;2023-04-26T14:13:40;20.50;31.30
34927;DHT22;21132;48.308;14.274;2023-04-26T14:16:06;20.60;31.60
34927;DHT22;21132;48.308;14.274;2023-04-26T14:18:33;20.70;30.10
34927;DHT22;21132;48.308;14.274;2023-04-26T14:20:59;20.50;29.60
34927;DHT22;21132;48.308;14.274;2023-04-26T14:23:24;20.50;30.50
34927;DHT22;21132;48.308;14.274;2023-04-26T14:25:51;20.50;30.10
34927;DHT22;21132;48.308;14.274;2023-04-26T14:28:17;20.30;30.10
34927;DHT22;21132;48.308;14.274;2023-04-26T14:30:43;20.30;31.00
34927;DHT22;21132;48.308;14.274;2023-04-26T14:33:09;20.30;30.60
34927;DHT22;21132;48.308;14.274;2023-04-26T14:35:34;20.20;30.00
34927;DHT22;21132;48.308;14.274;2023-04-26T14:38:00;20.20;29.80
34927;DHT22;21132;48.308;14.274;2023-04-26T14:40:26;20.20;30.30
34927;DHT22;21132;48.308;14.274;2023-04-26T14:42:52;20.10;30.00
34927;DHT22;21132;48.308;14.274;2023-04-26T14:45:18;20.10;30.20
34927;DHT22;21132;48.308;14.274;2023-04-26T14:47:44;20.10;30.00
34927;DHT22;21132;48.308;14.274;2023-04-26T14:50:10;20.00;31.10
34927;DHT22;21132;48.308;14.274;2023-04-26T14:52:39;20.10;31.00
34927;DHT22;21132;48.308;14.274;2023-04-26T14:55:05;20.10;31.10
34927;DHT22;21132;48.308;14.274;2023-04-26T14:57:31;20.10;30.90
34927;DHT22;21132;48.308;14.274;2023-04-26T14:59:59;20.10;30.30
34927;DHT22;21132;48.308;14.274;2023-04-26T15:02:32;20.10;30.00
34927;DHT22;21132;48.308;14.274;2023-04-26T15:04:58;20.00;30.50
34927;DHT22;21132;48.308;14.274;2023-04-26T15:07:24;19.90;30.00
34927;DHT22;21132;48.308;14.274;2023-04-26T15:09:50;19.80;30.00
34927;DHT22;21132;48.308;14.274;2023-04-26T15:12:16;19.80;30.10
34927;DHT22;21132;48.308;14.274;2023-04-26T15:14:41;19.70;30.20
34927;DHT22;21132;48.308;14.274;2023-04-26T15:17:07;19.80;30.90
34927;DHT22;21132;48.308;14.274;2023-04-26T15:19:33;20.00;30.60
34927;DHT22;21132;48.308;14.274;2023-04-26T15:22:00;20.10;30.30
34927;DHT22;21132;48.308;14.274;2023-04-26T15:24:26;20.30;29.50
34927;DHT22;21132;48.308;14.274;2023-04-26T15:26:51;20.30;29.00
34927;DHT22;21132;48.308;14.274;2023-04-26T15:29:17;20.20;28.90
34927;DHT22;21132;48.308;14.274;2023-04-26T15:31:43;20.30;29.80
34927;DHT22;21132;48.308;14.274;2023-04-26T15:34:08;20.20;29.90
34927;DHT22;21132;48.308;14.274;2023-04-26T15:36:34;20.10;30.00